createdAt,value
2023-01-11T00:02:40.129Z,97473.69
2023-01-11T00:05:43.419Z,97477.66
2023-01-11T00:08:46.137Z,97473.09
2023-01-11T00:11:47.722Z,97482.50
2023-01-11T00:14:49.352Z,97468.38
2023-01-11T00:17:50.967Z,97469.84
2023-01-11T00:20:52.578Z,97473.84
2023-01-11T00:23:54.133Z,97473.66
2023-01-11T00:26:55.805Z,97461.19
2023-01-11T00:29:57.553Z,97465.28
2023-01-11T00:33:00.058Z,97464.97
2023-01-11T00:36:01.784Z,97453.28
2023-01-11T00:39:03.457Z,97468.78
2023-01-11T00:42:23.867Z,97449.84
2023-01-11T00:45:43.809Z,97442.44
2023-01-11T00:48:45.395Z,97438.53
2023-01-11T00:51:47.811Z,97424.03
2023-01-11T00:54:49.603Z,97421.25
2023-01-11T00:57:51.653Z,97418.44
2023-01-11T01:00:53.167Z,97410.19
2023-01-11T01:03:54.764Z,97398.19
2023-01-11T01:06:56.554Z,97402.94
2023-01-11T01:09:58.183Z,97407.25
2023-01-11T01:13:18.140Z,97396.69
2023-01-11T01:16:19.866Z,97401.47
2023-01-11T01:19:22.521Z,97396.19
2023-01-11T01:22:24.073Z,97397.03
2023-01-11T01:25:25.748Z,97389.09
2023-01-11T01:28:27.306Z,97388.97
2023-01-11T01:31:28.863Z,97393.47
2023-01-11T01:34:30.487Z,97393.63
2023-01-11T01:37:32.011Z,97394.44
2023-01-11T01:40:33.610Z,97389.66
2023-01-11T01:43:53.470Z,97386.53
2023-01-11T01:46:55.078Z,97387.19
2023-01-11T01:49:59.157Z,97379.94
2023-01-11T01:53:04.918Z,97384.38
2023-01-11T01:56:30.274Z,97381.41
2023-01-11T01:59:33.105Z,97382.72
2023-01-11T02:02:37.401Z,97371.34
2023-01-11T02:05:39.016Z,97378.13
2023-01-11T02:08:44.100Z,97371.81
2023-01-11T02:11:45.758Z,97371.16
2023-01-11T02:14:49.062Z,97377.56
2023-01-11T02:17:51.103Z,97381.53
2023-01-11T02:21:14.103Z,97365.75
2023-01-11T02:24:56.501Z,97374.66
2023-01-11T02:28:01.318Z,97365.78
2023-01-11T02:31:16.474Z,97360.63
2023-01-11T02:34:34.180Z,97351.06
2023-01-11T02:37:49.046Z,97360.13
2023-01-11T02:41:05.985Z,97361.63
2023-01-11T02:44:32.714Z,97358.66
2023-01-11T02:47:43.992Z,97361.44
2023-01-11T02:51:39.547Z,97362.94
2023-01-11T02:54:44.978Z,97339.34
2023-01-11T02:57:48.091Z,97344.63
2023-01-11T03:00:50.755Z,97337.19
2023-01-11T03:03:53.093Z,97342.47
2023-01-11T03:07:16.375Z,97332.25
2023-01-11T03:10:32.585Z,97332.75
2023-01-11T03:13:46.964Z,97329.44
2023-01-11T03:17:24.012Z,97330.75
2023-01-11T03:20:31.332Z,97327.28
2023-01-11T03:23:46.692Z,97327.28
2023-01-11T03:27:05.755Z,97322.50
2023-01-11T03:30:25.166Z,97314.91
2023-01-11T03:33:37.795Z,97315.72
2023-01-11T03:36:48.129Z,97324.44
2023-01-11T03:40:00.661Z,97321.81
2023-01-11T03:43:13.328Z,97320.78
2023-01-11T03:46:20.759Z,97313.72
2023-01-11T03:49:29.644Z,97321.78
2023-01-11T03:52:38.655Z,97313.34
2023-01-11T03:55:44.472Z,97320.13
2023-01-11T03:58:45.983Z,97326.72
2023-01-11T04:01:47.707Z,97334.31
2023-01-11T04:04:49.284Z,97347.19
2023-01-11T04:07:52.554Z,97322.94
2023-01-11T04:10:54.131Z,97319.66
2023-01-11T04:13:55.722Z,97321.28
2023-01-11T04:16:57.883Z,97324.44
2023-01-11T04:19:59.497Z,97322.31
2023-01-11T04:23:01.104Z,97336.34
2023-01-11T04:26:02.623Z,97340.00
2023-01-11T04:29:04.232Z,97337.91
2023-01-11T04:32:05.928Z,97333.94
2023-01-11T04:35:07.884Z,97334.91
2023-01-11T04:38:09.363Z,97329.63
2023-01-11T04:41:29.580Z,97331.25
2023-01-11T04:44:31.172Z,97330.59
2023-01-11T04:47:32.885Z,97318.25
2023-01-11T04:50:34.457Z,97324.84
2023-01-11T04:53:36.552Z,97322.22
2023-01-11T04:56:38.192Z,97310.19
2023-01-11T04:59:39.839Z,97310.72
2023-01-11T05:02:42.157Z,97311.81
2023-01-11T05:05:43.760Z,97311.69
2023-01-11T05:08:48.876Z,97311.69
2023-01-11T05:11:50.409Z,97306.44
2023-01-11T05:14:51.931Z,97312.03
2023-01-11T05:17:53.613Z,97305.41
2023-01-11T05:20:55.139Z,97305.56
2023-01-11T05:23:58.967Z,97309.53
2023-01-11T05:27:00.867Z,97305.56
2023-01-11T05:30:02.421Z,97295.69
2023-01-11T05:33:04.300Z,97296.00
2023-01-11T05:36:08.661Z,97301.44
2023-01-11T05:39:14.230Z,97281.31
2023-01-11T05:42:16.717Z,97289.75
2023-01-11T05:45:30.129Z,97284.31
2023-01-11T05:48:31.855Z,97281.47
2023-01-11T05:51:34.670Z,97281.47
2023-01-11T05:54:37.179Z,97288.38
2023-01-11T05:57:42.387Z,97278.31
2023-01-11T06:00:43.890Z,97284.56
2023-01-11T06:03:46.347Z,97266.09
2023-01-11T06:06:47.903Z,97271.53
2023-01-11T06:09:49.547Z,97258.81
2023-01-11T06:13:13.787Z,97258.63
2023-01-11T06:16:18.186Z,97257.63
2023-01-11T06:19:19.792Z,97251.31
2023-01-11T06:22:21.306Z,97253.44
2023-01-11T06:25:22.905Z,97234.78
2023-01-11T06:28:24.510Z,97241.72
2023-01-11T06:31:26.228Z,97221.72
2023-01-11T06:34:27.755Z,97214.78
2023-01-11T06:37:29.358Z,97226.69
2023-01-11T06:40:31.028Z,97197.16
2023-01-11T06:43:33.016Z,97222.06
2023-01-11T06:46:34.584Z,97216.09
2023-01-11T06:49:36.205Z,97218.56
2023-01-11T06:52:37.782Z,97197.41
2023-01-11T06:55:39.399Z,97212.25
2023-01-11T06:58:41.334Z,97213.72
2023-01-11T07:01:43.091Z,97201.16
2023-01-11T07:04:44.855Z,97210.53
2023-01-11T07:07:46.589Z,97210.03
2023-01-11T07:10:48.606Z,97202.41
2023-01-11T07:13:50.216Z,97208.31
2023-01-11T07:16:51.804Z,97203.03
2023-01-11T07:19:53.365Z,97193.50
2023-01-11T07:22:59.585Z,97198.16
2023-01-11T07:26:01.323Z,97196.13
2023-01-11T07:29:02.973Z,97196.22
2023-01-11T07:32:04.909Z,97197.97
2023-01-11T07:35:07.195Z,97202.97
2023-01-11T07:38:10.155Z,97198.31
2023-01-11T07:41:30.254Z,97206.44
2023-01-11T07:44:31.785Z,97196.69
2023-01-11T07:47:33.321Z,97198.97
2023-01-11T07:50:34.810Z,97192.53
2023-01-11T07:53:36.417Z,97200.16
2023-01-11T07:56:37.950Z,97190.88
2023-01-11T07:59:39.440Z,97199.38
2023-01-11T08:02:41.325Z,97193.91
2023-01-11T08:05:42.951Z,97192.56
2023-01-11T08:08:44.686Z,97210.53
2023-01-11T08:12:04.574Z,97208.53
2023-01-11T08:15:06.985Z,97202.56
2023-01-11T08:18:09.617Z,97205.38
2023-01-11T08:21:12.428Z,97198.44
2023-01-11T08:24:15.078Z,97191.03
2023-01-11T08:27:16.744Z,97191.84
2023-01-11T08:30:18.644Z,97191.13
2023-01-11T08:34:13.600Z,97187.69
2023-01-11T08:37:15.179Z,97179.03
2023-01-11T08:40:16.819Z,97201.13
2023-01-11T08:43:18.426Z,97194.81
2023-01-11T08:46:20.316Z,97179.97
2023-01-11T08:49:21.928Z,97200.66
2023-01-11T08:52:23.556Z,97208.06
2023-01-11T08:55:25.159Z,97213.53
2023-01-11T08:58:26.765Z,97206.94
2023-01-11T09:01:28.492Z,97221.56
2023-01-11T09:04:30.122Z,97219.53
2023-01-11T09:07:31.740Z,97223.56
2023-01-11T09:10:33.920Z,97219.81
2023-01-11T09:13:35.461Z,97225.09
2023-01-11T09:16:37.051Z,97223.63
2023-01-11T09:19:38.597Z,97212.69
2023-01-11T09:22:40.383Z,97223.28
2023-01-11T09:25:41.981Z,97209.13
2023-01-11T09:28:43.531Z,97232.69
2023-01-11T09:31:45.081Z,97217.72
2023-01-11T09:34:47.270Z,97217.94
2023-01-11T09:37:49.967Z,97206.16
2023-01-11T09:41:16.701Z,97217.00
2023-01-11T09:44:23.340Z,97217.00
2023-01-11T09:47:32.893Z,97218.63
2023-01-11T09:50:41.143Z,97224.78
2023-01-11T09:53:49.443Z,97208.69
2023-01-11T09:57:22.882Z,97228.59
2023-01-11T10:00:36.751Z,97212.19
2023-01-11T10:04:03.356Z,97221.84
2023-01-11T10:18:39.684Z,97223.13
2023-01-11T10:19:33.348Z,97191.44
2023-01-11T10:22:41.865Z,97192.09
2023-01-11T10:25:54.373Z,97213.97
2023-01-11T10:29:22.250Z,97186.69
2023-01-11T10:32:53.163Z,97211.78
2023-01-11T10:36:18.891Z,97195.06
2023-01-11T10:40:26.752Z,97204.34
2023-01-11T10:43:31.761Z,97197.84
2023-01-11T10:46:39.652Z,97203.50
2023-01-11T10:50:06.630Z,97196.00
2023-01-11T10:53:25.768Z,97199.88
2023-01-11T10:57:02.683Z,97247.56
2023-01-11T11:00:21.372Z,97190.91
2023-01-11T11:04:10.488Z,97179.31
2023-01-11T11:07:25.820Z,97179.16
2023-01-11T11:10:45.949Z,97208.34
2023-01-11T11:14:29.587Z,97190.44
2023-01-11T11:17:35.167Z,97187.16
2023-01-11T11:20:36.853Z,97202.63
2023-01-11T11:23:39.074Z,97182.81
2023-01-11T11:26:45.738Z,97226.03
2023-01-11T11:29:53.032Z,97183.22
2023-01-11T11:32:59.416Z,97174.81
2023-01-11T11:36:07.906Z,97166.34
2023-01-11T11:39:18.423Z,97182.81
2023-01-11T11:42:24.147Z,97170.09
2023-01-11T11:45:27.726Z,97201.84
2023-01-11T11:48:33.319Z,97190.50
2023-01-11T11:51:34.929Z,97167.31
2023-01-11T11:54:41.698Z,97202.16
2023-01-11T11:57:43.868Z,97197.75
2023-01-11T12:00:49.017Z,97194.66
2023-01-11T12:03:58.700Z,97183.13
2023-01-11T12:07:15.125Z,97199.94
2023-01-11T12:10:19.759Z,97186.75
2023-01-11T12:13:33.460Z,97199.59
2023-01-11T12:16:40.102Z,97182.47
2023-01-11T12:19:45.211Z,97176.19
2023-01-11T12:22:46.811Z,97176.47
2023-01-11T12:26:18.960Z,97197.41
2023-01-11T12:29:49.947Z,97189.88
2023-01-11T12:32:57.705Z,97178.47
2023-01-11T12:36:30.882Z,97182.44
2023-01-11T12:39:50.751Z,97210.66
2023-01-11T12:42:58.095Z,97204.19
2023-01-11T12:46:27.436Z,97193.47
2023-01-11T12:49:45.731Z,97189.22
2023-01-11T12:52:49.945Z,97207.47
2023-01-11T12:55:54.489Z,97194.25
2023-01-11T12:59:05.783Z,97190.97
2023-01-11T13:02:07.378Z,97178.25
2023-01-11T13:05:23.625Z,97183.03
2023-01-11T13:08:55.160Z,97182.19
2023-01-11T13:12:18.822Z,97187.06
2023-01-11T13:15:45.055Z,97177.16
2023-01-11T13:19:16.552Z,97176.44
2023-01-11T13:22:23.253Z,97190.44
2023-01-11T13:25:31.976Z,97197.00
2023-01-11T13:28:39.312Z,97185.47
2023-01-11T13:31:44.098Z,97197.31
2023-01-11T13:34:55.547Z,97202.13
2023-01-11T13:38:05.882Z,97208.38
2023-01-11T13:41:25.708Z,97204.59
2023-01-11T13:44:52.859Z,97219.56
2023-01-11T13:48:00.114Z,97223.00
2023-01-11T13:51:12.977Z,97221.34
2023-01-11T13:54:23.120Z,97225.25
2023-01-11T13:57:36.512Z,97217.72
2023-01-11T14:00:50.338Z,97221.94
2023-01-11T14:03:59.811Z,97230.69
2023-01-11T14:07:19.808Z,97238.13
2023-01-11T14:10:52.359Z,97233.88
2023-01-11T14:14:13.735Z,97238.69
2023-01-11T14:17:40.087Z,97245.16
2023-01-11T14:21:05.946Z,97247.44
2023-01-11T14:24:10.347Z,97250.63
2023-01-11T14:27:34.958Z,97251.66
2023-01-11T14:30:42.685Z,97264.38
2023-01-11T14:34:05.291Z,97271.16
2023-01-11T14:37:35.140Z,97280.59
2023-01-11T14:41:34.699Z,97319.25
2023-01-11T14:44:47.478Z,97322.41
2023-01-11T14:48:10.018Z,97326.38
2023-01-11T14:51:33.168Z,97323.53
2023-01-11T14:54:40.090Z,97335.41
2023-01-11T14:58:01.613Z,97348.22
2023-01-11T15:01:06.797Z,97355.84
2023-01-11T15:04:20.793Z,97358.47
2023-01-11T15:07:34.588Z,97358.78
2023-01-11T15:10:36.610Z,97366.84
2023-01-11T15:13:50.604Z,97361.59
2023-01-11T15:17:17.852Z,97372.94
2023-01-11T15:20:21.785Z,97382.31
2023-01-11T15:23:24.537Z,97390.56
2023-01-11T15:26:27.104Z,97387.78
2023-01-11T15:29:35.590Z,97397.50
2023-01-11T15:32:37.423Z,97404.41
2023-01-11T15:35:39.151Z,97401.78
2023-01-11T15:39:03.531Z,97412.47
2023-01-11T15:42:17.450Z,97418.59
2023-01-11T15:45:38.991Z,97419.56
2023-01-11T15:49:14.709Z,97427.81
2023-01-11T15:52:50.329Z,97417.09
2023-01-11T15:56:19.075Z,97419.38
2023-01-11T15:59:38.955Z,97433.72
2023-01-11T16:02:55.614Z,97446.09
2023-01-11T16:06:33.707Z,97448.72
2023-01-11T16:10:02.804Z,97457.59
2023-01-11T16:13:15.958Z,97463.19
2023-01-11T16:16:31.528Z,97462.22
2023-01-11T16:19:35.821Z,97461.56
2023-01-11T16:22:37.451Z,97472.91
2023-01-11T16:25:41.705Z,97478.03
2023-01-11T16:28:48.847Z,97473.91
2023-01-11T16:31:58.141Z,97478.69
2023-01-11T16:35:01.928Z,97476.38
2023-01-11T16:38:05.184Z,97494.00
2023-01-11T16:41:08.806Z,97484.13
2023-01-11T16:44:23.267Z,97495.50
2023-01-11T16:47:24.661Z,97503.06
2023-01-11T16:50:28.405Z,97497.50
2023-01-11T16:53:31.940Z,97504.09
2023-01-11T16:56:35.410Z,97519.53
2023-01-11T16:59:39.155Z,97531.19
2023-01-11T17:02:43.241Z,97544.88
2023-01-11T17:05:56.289Z,97551.38
2023-01-11T17:08:59.878Z,97546.13
2023-01-11T17:12:01.494Z,97549.31
2023-01-11T17:15:18.711Z,97546.09
2023-01-11T17:18:20.233Z,97552.81
2023-01-11T17:21:26.318Z,97554.19
2023-01-11T17:24:28.463Z,97571.00
2023-01-11T17:27:35.631Z,97571.75
2023-01-11T17:30:37.206Z,97581.75
2023-01-11T17:33:38.769Z,97590.94
2023-01-11T17:36:41.739Z,97586.91
2023-01-11T17:39:51.836Z,97584.06
2023-01-11T17:43:15.452Z,97594.66
2023-01-11T17:46:20.126Z,97603.69
2023-01-11T17:49:23.846Z,97605.19
2023-01-11T17:52:26.943Z,97604.44
2023-01-11T17:55:28.505Z,97618.44
2023-01-11T17:58:33.542Z,97616.34
2023-01-11T18:01:36.281Z,97622.50
2023-01-11T18:04:37.951Z,97616.56
2023-01-11T18:07:43.924Z,97623.25
2023-01-11T18:10:53.495Z,97626.09
2023-01-11T18:13:58.143Z,97629.78
2023-01-11T18:17:03.557Z,97639.41
2023-01-11T18:20:14.627Z,97645.06
2023-01-11T18:23:20.102Z,97642.13
2023-01-11T18:26:28.814Z,97642.34
2023-01-11T18:29:36.361Z,97647.94
2023-01-11T18:32:43.223Z,97646.56
2023-01-11T18:35:47.178Z,97652.38
2023-01-11T18:38:49.226Z,97654.03
2023-01-11T18:42:09.387Z,97647.41
2023-01-11T18:45:12.045Z,97645.50
2023-01-11T18:48:15.406Z,97631.91
2023-01-11T18:51:24.131Z,97641.91
2023-01-11T18:54:25.733Z,97638.47
2023-01-11T18:57:27.486Z,97658.25
2023-01-11T19:00:29.138Z,97658.97
2023-01-11T19:03:30.696Z,97667.00
2023-01-11T19:06:32.312Z,97670.06
2023-01-11T19:09:33.878Z,97678.94
2023-01-11T19:12:35.701Z,97697.22
2023-01-11T19:15:37.405Z,97692.97
2023-01-11T19:18:38.926Z,97701.66
2023-01-11T19:21:40.532Z,97703.88
2023-01-11T19:24:42.172Z,97708.06
2023-01-11T19:27:43.781Z,97712.19
2023-01-11T19:30:45.589Z,97714.09
2023-01-11T19:33:47.727Z,97716.13
2023-01-11T19:36:50.536Z,97714.75
2023-01-11T19:39:52.095Z,97712.50
2023-01-11T19:42:53.847Z,97708.50
2023-01-11T19:45:58.662Z,97711.59
2023-01-11T19:49:00.341Z,97699.13
2023-01-11T19:52:01.868Z,97709.28
2023-01-11T19:55:06.609Z,97706.38
2023-01-11T19:58:08.400Z,97710.28
2023-01-11T20:01:13.276Z,97714.44
2023-01-11T20:04:16.406Z,97721.28
2023-01-11T20:07:17.995Z,97721.56
2023-01-11T20:10:19.783Z,97734.97
2023-01-11T20:13:21.455Z,97736.91
2023-01-11T20:16:24.497Z,97735.00
2023-01-11T20:19:26.186Z,97736.34
2023-01-11T20:22:28.613Z,97744.63
2023-01-11T20:25:30.272Z,97755.25
2023-01-11T20:28:32.554Z,97741.53
2023-01-11T20:31:35.644Z,97737.34
2023-01-11T20:34:37.346Z,97750.38
2023-01-11T20:37:38.906Z,97737.09
2023-01-11T20:40:40.974Z,97750.22
2023-01-11T20:43:42.592Z,97750.22
2023-01-11T20:46:47.556Z,97752.59
2023-01-11T20:49:49.534Z,97753.25
2023-01-11T20:52:51.958Z,97760.06
2023-01-11T20:55:53.613Z,97763.09
2023-01-11T20:58:55.253Z,97766.88
2023-01-11T21:01:56.822Z,97762.59
2023-01-11T21:04:58.374Z,97766.19
2023-01-11T21:07:59.934Z,97765.66
2023-01-11T21:11:09.601Z,97750.28
2023-01-11T21:14:14.116Z,97765.88
2023-01-11T21:17:16.031Z,97768.91
2023-01-11T21:20:17.743Z,97766.97
2023-01-11T21:23:19.355Z,97766.69
2023-01-11T21:26:21.070Z,97769.59
2023-01-11T21:29:22.899Z,97775.97
2023-01-11T21:32:24.502Z,97778.75
2023-01-11T21:35:27.113Z,97782.19
2023-01-11T21:38:30.884Z,97769.50
2023-01-11T21:41:52.450Z,97766.88
2023-01-11T21:44:53.981Z,97760.91
2023-01-11T21:47:55.489Z,97757.19
2023-01-11T21:50:57.383Z,97754.56
2023-01-11T21:54:05.128Z,97763.41
2023-01-11T21:57:07.231Z,97769.22
2023-01-11T22:00:10.946Z,97759.53
2023-01-11T22:03:15.270Z,97762.84
2023-01-11T22:06:17.513Z,97749.00
2023-01-11T22:09:20.082Z,97739.56
2023-01-11T22:12:21.787Z,97750.00
2023-01-11T22:15:23.437Z,97749.31
2023-01-11T22:18:25.029Z,97756.50
2023-01-11T22:21:27.108Z,97758.59
2023-01-11T22:24:28.737Z,97759.31
2023-01-11T22:27:30.355Z,97763.31
2023-01-11T22:30:31.980Z,97747.25
2023-01-11T22:33:33.559Z,97753.50
2023-01-11T22:36:35.236Z,97758.59
2023-01-11T22:39:40.787Z,97760.41
2023-01-11T22:42:42.395Z,97770.91
2023-01-11T22:45:56.554Z,97782.69
2023-01-11T22:48:58.931Z,97764.00
2023-01-11T22:52:00.567Z,97777.84
2023-01-11T22:55:02.682Z,97780.47
2023-01-11T22:58:04.265Z,97785.72
2023-01-11T23:01:22.195Z,97773.94
2023-01-11T23:04:23.936Z,97771.53
2023-01-11T23:07:25.602Z,97772.22
2023-01-11T23:10:27.232Z,97766.56
2023-01-11T23:13:47.647Z,97764.47
2023-01-11T23:16:50.385Z,97766.50
2023-01-11T23:19:52.075Z,97772.47
2023-01-11T23:22:53.675Z,97762.06
2023-01-11T23:25:55.321Z,97761.91
2023-01-11T23:28:56.913Z,97762.06
2023-01-11T23:31:58.591Z,97760.78
2023-01-11T23:35:09.028Z,97764.69
2023-01-11T23:38:10.546Z,97759.72
2023-01-11T23:41:33.084Z,97757.38
2023-01-11T23:44:34.970Z,97767.50
2023-01-11T23:47:36.569Z,97759.75
2023-01-11T23:50:38.117Z,97755.03
2023-01-11T23:53:39.731Z,97760.84
2023-01-11T23:56:41.348Z,97749.50
2023-01-11T23:59:43.419Z,97770.91
